Time;durP1;ratioP1;P1;durP2;ratioP2;P2;SDS_P1;SDS_P2;PMS_P1;PMS_P2;Temp;Humidity;BMP_temperature;BMP_pressure;BME280_temperature;BME280_humidity;BME280_pressure;Samples;Min_cycle;Max_cycle;Signal;HPM_P1;HPM_P2
2022/03/25 00:01:30;;;;;;;;;;;;;;;3.64;47.75;95654.94;5054789;28;1626;-49
2022/03/25 00:03:57;;;;;;;;;;;;;;;3.22;48.33;95653.44;5053709;28;1000;-49
2022/03/25 00:06:23;;;;;;;;;;;;;;;3.00;49.11;95659.31;5053712;28;1032;-49
2022/03/25 00:08:49;;;;;;;;;;;;;;;3.04;48.98;95658.16;5053790;28;1048;-49
2022/03/25 00:11:15;;;;;;;;;;;;;;;2.92;49.30;95655.41;5053382;28;1019;-49
2022/03/25 00:13:42;;;;;;;;;;;;;;;3.24;49.12;95652.38;5053416;28;1918;-49
2022/03/25 00:16:08;;;;;;;;;;;;;;;3.26;48.83;95642.56;5053392;28;1095;-49
2022/03/25 00:18:34;;;;;;;;;;;;;;;3.38;48.79;95651.44;5053626;28;1036;-49
2022/03/25 00:21:00;;;;;;;;;;;;;;;3.33;47.99;95641.16;5053172;28;1077;-49
2022/03/25 00:23:27;;;;;;;;;;;;;;;3.56;47.78;95643.19;5053628;28;1060;-49
2022/03/25 00:25:53;;;;;;;;;;;;;;;3.17;48.96;95645.81;5053277;28;961;-49
2022/03/25 00:28:22;;;;;;;;;;;;;;;2.95;49.34;95648.22;5053515;28;1044;-49
2022/03/25 00:30:49;;;;;;;;;;;;;;;2.83;49.97;95652.53;5052727;28;1038;-49
2022/03/25 00:33:16;;;;;;;;;;;;;;;2.76;49.99;95648.59;5052192;28;1906;-49
2022/03/25 00:35:42;;;;;;;;;;;;;;;3.10;49.14;95634.81;5052965;28;1028;-49
2022/03/25 00:38:09;;;;;;;;;;;;;;;3.08;49.39;95636.72;5053140;28;1063;-49
2022/03/25 00:40:35;;;;;;;;;;;;;;;3.04;49.94;95635.22;5053186;28;945;-49
2022/03/25 00:43:01;;;;;;;;;;;;;;;3.03;49.60;95625.59;5052829;28;1079;-49
2022/03/25 00:45:29;;;;;;;;;;;;;;;2.74;50.31;95630.22;5053101;28;1001;-49
2022/03/25 00:47:55;;;;;;;;;;;;;;;2.81;49.80;95628.84;5053006;28;1001;-49
2022/03/25 00:50:22;;;;;;;;;;;;;;;2.93;49.62;95625.38;5052975;28;1040;-49
2022/03/25 00:52:48;;;;;;;;;;;;;;;2.79;49.80;95628.13;5071758;28;1996;-49
2022/03/25 00:55:14;;;;;;;;;;;;;;;2.80;50.25;95619.22;5073305;28;960;-49
2022/03/25 00:57:40;;;;;;;;;;;;;;;2.86;50.28;95613.53;5072968;28;1048;-49
2022/03/25 01:00:07;;;;;;;;;;;;;;;2.85;49.98;95603.94;5073044;28;1056;-49
2022/03/25 01:02:34;;;;;;;;;;;;;;;2.56;50.47;95611.13;5072819;28;1043;-49
2022/03/25 01:05:00;;;;;;;;;;;;;;;2.41;51.15;95606.84;5073062;28;968;-48
2022/03/25 01:07:26;;;;;;;;;;;;;;;2.39;51.16;95604.34;5075257;28;988;-49
2022/03/25 01:09:52;;;;;;;;;;;;;;;2.29;51.54;95600.59;5077009;28;1043;-49
2022/03/25 01:12:21;;;;;;;;;;;;;;;2.42;51.40;95598.84;5076637;28;1987;-49
2022/03/25 01:14:47;;;;;;;;;;;;;;;2.61;51.41;95595.84;5076838;28;1039;-49
2022/03/25 01:17:14;;;;;;;;;;;;;;;2.54;50.95;95587.50;5076852;28;1056;-49
2022/03/25 01:19:41;;;;;;;;;;;;;;;2.58;50.55;95597.84;5076972;28;1000;-49
2022/03/25 01:22:07;;;;;;;;;;;;;;;2.67;51.01;95595.41;5076517;28;1052;-49
2022/03/25 01:24:33;;;;;;;;;;;;;;;2.59;50.63;95594.25;5076811;28;1004;-49
2022/03/25 01:26:59;;;;;;;;;;;;;;;2.54;51.24;95592.78;5076457;28;988;-48
2022/03/25 01:29:26;;;;;;;;;;;;;;;2.24;52.26;95592.13;5076589;28;1034;-49
2022/03/25 01:31:53;;;;;;;;;;;;;;;1.74;52.90;95589.97;5076528;28;1042;-49
2022/03/25 01:34:19;;;;;;;;;;;;;;;1.92;52.04;95585.34;5076406;28;1039;-49
2022/03/25 01:36:46;;;;;;;;;;;;;;;1.83;52.88;95595.63;5074950;28;980;-49
2022/03/25 01:39:13;;;;;;;;;;;;;;;1.80;52.80;95591.38;5076588;28;1016;-49
2022/03/25 01:41:39;;;;;;;;;;;;;;;1.91;53.21;95583.63;5076138;28;1080;-49
2022/03/25 01:44:09;;;;;;;;;;;;;;;2.09;52.62;95596.63;5075964;28;1071;-49
2022/03/25 01:46:36;;;;;;;;;;;;;;;2.14;52.15;95587.47;5076080;28;1031;-49
2022/03/25 01:49:02;;;;;;;;;;;;;;;2.11;52.30;95587.66;5076231;28;1028;-49
2022/03/25 01:51:29;;;;;;;;;;;;;;;2.19;52.63;95588.94;5076158;28;1154;-49
2022/03/25 01:54:17;;;;;;;;;;;;;;;2.24;52.23;95584.19;5075841;28;1910;-49
2022/03/25 01:56:43;;;;;;;;;;;;;;;2.09;52.32;95579.00;5075872;28;1083;-49
2022/03/25 01:59:10;;;;;;;;;;;;;;;1.74;53.33;95587.34;5076251;28;924;-49
2022/03/25 02:01:40;;;;;;;;;;;;;;;1.78;53.65;95580.09;5076174;28;1049;-49
2022/03/25 02:04:06;;;;;;;;;;;;;;;1.70;53.86;95577.09;5075787;28;1067;-49
2022/03/25 02:06:32;;;;;;;;;;;;;;;1.91;53.88;95574.88;5076036;28;1024;-49
2022/03/25 02:08:58;;;;;;;;;;;;;;;2.14;52.99;95579.56;5075724;28;1055;-49
2022/03/25 02:11:26;;;;;;;;;;;;;;;2.27;53.06;95573.47;5075800;28;953;-49
2022/03/25 02:13:52;;;;;;;;;;;;;;;2.23;52.49;95577.25;5075220;28;1906;-49
2022/03/25 02:16:18;;;;;;;;;;;;;;;2.15;53.21;95575.94;5075997;28;971;-49
2022/03/25 02:18:45;;;;;;;;;;;;;;;2.12;52.88;95570.84;5074842;28;1040;-49
2022/03/25 02:21:12;;;;;;;;;;;;;;;2.05;53.36;95574.88;5075799;28;995;-49
2022/03/25 02:23:38;;;;;;;;;;;;;;;2.05;53.28;95574.00;5075973;28;1111;-49
2022/03/25 02:26:05;;;;;;;;;;;;;;;2.14;52.92;95570.78;5075437;28;1039;-49
2022/03/25 02:28:31;;;;;;;;;;;;;;;2.08;53.49;95577.28;5075355;28;1047;-49
2022/03/25 02:30:57;;;;;;;;;;;;;;;2.01;53.64;95576.00;5075701;28;976;-49
2022/03/25 02:33:23;;;;;;;;;;;;;;;1.86;53.67;95574.31;5075226;28;1905;-49
2022/03/25 02:35:50;;;;;;;;;;;;;;;1.88;53.70;95577.75;5075463;28;1052;-54
2022/03/25 02:38:18;;;;;;;;;;;;;;;1.92;53.67;95587.97;5075229;28;981;-49
2022/03/25 02:40:44;;;;;;;;;;;;;;;1.82;54.21;95584.25;5075332;28;1032;-49
2022/03/25 02:43:11;;;;;;;;;;;;;;;1.99;53.46;95580.50;5075257;28;1071;-49
2022/03/25 02:45:37;;;;;;;;;;;;;;;1.98;53.65;95584.09;5075597;28;1008;-49
2022/03/25 02:48:04;;;;;;;;;;;;;;;1.90;53.78;95581.97;5074905;28;1104;-49
2022/03/25 02:50:30;;;;;;;;;;;;;;;1.70;53.82;95593.75;5075242;28;1158;-49
2022/03/25 02:52:57;;;;;;;;;;;;;;;1.70;54.13;95599.03;5074633;28;1905;-49
2022/03/25 02:55:24;;;;;;;;;;;;;;;1.86;53.95;95592.78;5075054;28;1056;-49
2022/03/25 02:57:54;;;;;;;;;;;;;;;1.77;53.77;95599.50;5074990;28;1055;-49
2022/03/25 03:00:20;;;;;;;;;;;;;;;1.81;53.91;95602.81;5075134;28;984;-49
2022/03/25 03:02:47;;;;;;;;;;;;;;;1.68;54.51;95600.06;5074535;28;1056;-49
2022/03/25 03:05:14;;;;;;;;;;;;;;;1.64;54.51;95601.22;5074889;28;976;-49
2022/03/25 03:07:40;;;;;;;;;;;;;;;1.58;55.04;95606.88;5074820;28;1015;-49
2022/03/25 03:10:08;;;;;;;;;;;;;;;1.46;54.85;95597.91;5074566;28;1033;-49
2022/03/25 03:12:35;;;;;;;;;;;;;;;1.28;55.38;95595.47;5074726;28;1890;-49
2022/03/25 03:15:02;;;;;;;;;;;;;;;1.35;55.52;95604.72;5074604;28;1047;-49
2022/03/25 03:17:28;;;;;;;;;;;;;;;1.36;55.16;95592.38;5073414;28;1079;-49
2022/03/25 03:19:55;;;;;;;;;;;;;;;1.17;55.93;95590.84;5074344;28;1037;-49
2022/03/25 03:22:22;;;;;;;;;;;;;;;1.13;55.66;95583.25;5074444;28;1017;-49
2022/03/25 03:24:48;;;;;;;;;;;;;;;1.26;55.65;95578.91;5074166;28;1075;-49
2022/03/25 03:27:14;;;;;;;;;;;;;;;1.24;55.83;95582.59;5074405;28;1076;-49
2022/03/25 03:29:41;;;;;;;;;;;;;;;1.36;55.35;95580.03;5073309;28;1087;-49
2022/03/25 03:32:07;;;;;;;;;;;;;;;1.26;55.86;95581.56;5074159;28;1902;-49
2022/03/25 03:34:34;;;;;;;;;;;;;;;1.44;54.79;95584.88;5074252;28;961;-49
2022/03/25 03:37:00;;;;;;;;;;;;;;;1.39;55.00;95578.19;5074129;28;1043;-49
2022/03/25 03:39:26;;;;;;;;;;;;;;;1.28;55.51;95579.66;5073963;28;1044;-49
2022/03/25 03:41:52;;;;;;;;;;;;;;;1.30;55.55;95587.50;5074053;28;1007;-49
2022/03/25 03:44:18;;;;;;;;;;;;;;;1.39;55.00;95576.38;5074127;28;1131;-49
2022/03/25 03:46:44;;;;;;;;;;;;;;;1.23;55.56;95576.47;5074038;28;1070;-55
2022/03/25 03:49:10;;;;;;;;;;;;;;;1.23;55.30;95576.47;5073829;28;1084;-49
2022/03/25 03:51:36;;;;;;;;;;;;;;;1.20;55.64;95578.47;5073856;28;1217;-49
2022/03/25 03:54:05;;;;;;;;;;;;;;;1.09;55.76;95571.22;5072153;28;1995;-49
2022/03/25 03:56:31;;;;;;;;;;;;;;;1.06;56.04;95574.00;5073805;28;1015;-49
2022/03/25 03:58:57;;;;;;;;;;;;;;;1.21;55.98;95580.97;5073761;28;1052;-49
2022/03/25 04:01:23;;;;;;;;;;;;;;;1.24;56.18;95578.16;5073719;28;1012;-49
2022/03/25 04:03:49;;;;;;;;;;;;;;;1.14;56.00;95584.97;5073429;28;1044;-49
2022/03/25 04:06:15;;;;;;;;;;;;;;;1.40;55.77;95580.69;5073752;28;1056;-49
2022/03/25 04:08:41;;;;;;;;;;;;;;;1.37;55.81;95580.91;5073738;28;965;-49
2022/03/25 04:11:07;;;;;;;;;;;;;;;1.30;55.57;95583.06;5073802;28;969;-49
2022/03/25 04:13:33;;;;;;;;;;;;;;;1.40;55.22;95582.50;5073532;28;1910;-49
2022/03/25 04:15:59;;;;;;;;;;;;;;;1.50;55.21;95579.19;5073523;28;976;-49
2022/03/25 04:18:26;;;;;;;;;;;;;;;1.34;56.43;95583.72;5073636;28;1079;-49
2022/03/25 04:20:52;;;;;;;;;;;;;;;1.26;55.90;95578.09;5073369;28;953;-49
2022/03/25 04:23:19;;;;;;;;;;;;;;;0.89;56.82;95581.16;5074249;28;980;-49
2022/03/25 04:25:45;;;;;;;;;;;;;;;0.94;56.96;95586.13;5073722;28;1004;-49
2022/03/25 04:28:11;;;;;;;;;;;;;;;1.06;56.31;95589.81;5073893;28;969;-49
2022/03/25 04:30:37;;;;;;;;;;;;;;;1.00;56.70;95585.75;5073745;28;1020;-49
2022/03/25 04:33:04;;;;;;;;;;;;;;;0.86;57.62;95578.69;5073678;28;1995;-49
2022/03/25 04:35:30;;;;;;;;;;;;;;;0.99;57.03;95592.00;5073517;28;1004;-49
2022/03/25 04:37:57;;;;;;;;;;;;;;;0.96;56.57;95600.91;5073676;28;1685;-49
2022/03/25 04:40:25;;;;;;;;;;;;;;;0.89;57.01;95602.22;5073143;28;1051;-49
2022/03/25 04:42:52;;;;;;;;;;;;;;;1.07;56.80;95594.16;5073214;28;1055;-49
2022/03/25 04:45:19;;;;;;;;;;;;;;;1.08;56.29;95604.59;5073169;28;1028;-49
2022/03/25 04:47:45;;;;;;;;;;;;;;;1.17;56.35;95595.28;5073330;28;1072;-49
2022/03/25 04:50:12;;;;;;;;;;;;;;;1.42;55.69;95599.06;5073001;28;1052;-49
2022/03/25 04:52:38;;;;;;;;;;;;;;;1.31;55.71;95603.22;5073260;28;1918;-49
2022/03/25 04:55:05;;;;;;;;;;;;;;;1.19;56.30;95605.72;5073059;28;1052;-49
2022/03/25 04:57:31;;;;;;;;;;;;;;;1.39;56.10;95612.44;5073359;28;955;-49
2022/03/25 04:59:57;;;;;;;;;;;;;;;1.63;55.65;95615.31;5073023;28;1028;-49
2022/03/25 05:02:23;;;;;;;;;;;;;;;1.92;55.19;95627.53;5073303;28;1082;-48
2022/03/25 05:04:49;;;;;;;;;;;;;;;2.24;54.20;95619.38;5071638;28;996;-49
2022/03/25 05:07:16;;;;;;;;;;;;;;;2.32;54.68;95613.59;5072985;28;1069;-48
2022/03/25 05:09:43;;;;;;;;;;;;;;;2.41;54.63;95620.06;5073045;28;1047;-48
2022/03/25 05:12:09;;;;;;;;;;;;;;;2.40;54.48;95624.50;5072706;28;1914;-48
2022/03/25 05:14:35;;;;;;;;;;;;;;;2.46;54.16;95626.72;5073015;28;988;-49
2022/03/25 05:17:01;;;;;;;;;;;;;;;2.72;53.36;95622.38;5072680;28;1144;-48
2022/03/25 05:19:27;;;;;;;;;;;;;;;2.90;52.54;95622.97;5072995;28;1028;-48
2022/03/25 05:21:53;;;;;;;;;;;;;;;3.19;53.26;95620.16;5072727;28;964;-48
2022/03/25 05:24:19;;;;;;;;;;;;;;;3.44;52.91;95624.59;5072934;28;1017;-48
2022/03/25 05:26:45;;;;;;;;;;;;;;;3.66;52.03;95626.59;5072840;28;972;-49
2022/03/25 05:29:12;;;;;;;;;;;;;;;3.80;53.31;95628.25;5073009;28;1031;-49
2022/03/25 05:31:38;;;;;;;;;;;;;;;3.82;53.08;95629.00;5055235;28;1590;-48
2022/03/25 05:34:04;;;;;;;;;;;;;;;4.13;51.72;95632.09;5072672;28;1910;-48
2022/03/25 05:36:31;;;;;;;;;;;;;;;4.64;50.69;95628.44;5072536;28;1016;-48
2022/03/25 05:38:58;;;;;;;;;;;;;;;4.75;50.14;95630.28;5072741;28;1001;-48
2022/03/25 05:41:25;;;;;;;;;;;;;;;4.41;50.66;95630.13;5072449;28;1008;-48
2022/03/25 05:43:51;;;;;;;;;;;;;;;4.32;49.89;95630.78;5072339;28;1032;-48
2022/03/25 05:46:17;;;;;;;;;;;;;;;4.40;50.22;95621.34;5072386;28;1044;-48
2022/03/25 05:48:44;;;;;;;;;;;;;;;4.45;50.39;95621.81;5072548;28;1099;-48
2022/03/25 05:51:10;;;;;;;;;;;;;;;4.81;50.55;95630.66;5072297;28;1158;-48
2022/03/25 05:53:37;;;;;;;;;;;;;;;5.02;48.49;95619.44;5074754;28;1997;-48
2022/03/25 05:56:04;;;;;;;;;;;;;;;5.14;48.69;95625.59;5075841;28;1092;-49
2022/03/25 05:58:36;;;;;;;;;;;;;;;5.61;47.54;95632.56;5075973;28;1024;-49
2022/03/25 06:01:03;;;;;;;;;;;;;;;5.89;46.68;95625.09;5074423;28;1021;-48
2022/03/25 06:03:30;;;;;;;;;;;;;;;6.25;46.34;95639.13;5075998;28;1049;-47
2022/03/25 06:05:56;;;;;;;;;;;;;;;6.52;44.69;95629.88;5075900;28;1035;-48
2022/03/25 06:08:23;;;;;;;;;;;;;;;7.01;44.04;95633.84;5076151;28;1042;-48
2022/03/25 06:10:50;;;;;;;;;;;;;;;7.33;42.54;95631.13;5076183;28;1031;-48
2022/03/25 06:13:17;;;;;;;;;;;;;;;8.02;41.07;95630.56;5075667;28;1894;-48
2022/03/25 06:15:43;;;;;;;;;;;;;;;8.58;39.72;95631.88;5075628;28;1137;-49
2022/03/25 06:18:09;;;;;;;;;;;;;;;9.17;39.11;95630.09;5075598;28;1003;-48
2022/03/25 06:20:35;;;;;;;;;;;;;;;9.78;38.18;95639.56;5075720;28;1013;-48
2022/03/25 06:23:01;;;;;;;;;;;;;;;10.54;35.73;95637.78;5075588;28;1044;-48
2022/03/25 06:25:28;;;;;;;;;;;;;;;12.10;33.11;95636.50;5075581;28;1103;-48
2022/03/25 06:27:55;;;;;;;;;;;;;;;14.24;30.61;95638.56;5075347;28;1047;-48
2022/03/25 06:30:24;;;;;;;;;;;;;;;15.74;28.78;95646.59;5075469;28;1045;-48
2022/03/25 06:32:50;;;;;;;;;;;;;;;16.48;27.73;95645.91;5075022;28;2090;-48
2022/03/25 06:35:16;;;;;;;;;;;;;;;16.66;26.72;95636.63;5075589;28;1036;-48
2022/03/25 06:37:43;;;;;;;;;;;;;;;16.94;26.62;95648.44;5075159;28;1076;-48
2022/03/25 06:40:09;;;;;;;;;;;;;;;16.89;25.83;95650.03;5075763;28;1150;-48
2022/03/25 06:42:36;;;;;;;;;;;;;;;16.22;26.83;95640.09;5071481;28;1185;-48
2022/03/25 06:45:02;;;;;;;;;;;;;;;16.51;28.04;95640.13;5075096;28;1071;-48
2022/03/25 06:47:29;;;;;;;;;;;;;;;17.95;24.92;95634.13;5075115;28;1040;-49
2022/03/25 06:49:55;;;;;;;;;;;;;;;19.63;23.29;95642.94;5075400;28;945;-48
2022/03/25 06:52:21;;;;;;;;;;;;;;;20.19;22.25;95641.78;5075156;28;1914;-49
2022/03/25 06:54:49;;;;;;;;;;;;;;;20.83;22.18;95632.09;5064528;28;1109;-49
2022/03/25 06:57:15;;;;;;;;;;;;;;;21.39;22.13;95636.03;5055131;28;1041;-49
2022/03/25 06:59:42;;;;;;;;;;;;;;;22.69;20.68;95642.03;5055073;28;1849;-49
2022/03/25 07:02:09;;;;;;;;;;;;;;;24.04;18.74;95646.50;5054659;28;1095;-50
2022/03/25 07:04:35;;;;;;;;;;;;;;;24.55;19.21;95631.38;5054867;28;1082;-52
2022/03/25 07:07:03;;;;;;;;;;;;;;;25.21;17.89;95644.03;5054471;28;989;-50
2022/03/25 07:09:29;;;;;;;;;;;;;;;25.78;17.45;95638.66;5054805;28;897;-49
2022/03/25 07:11:56;;;;;;;;;;;;;;;26.40;16.54;95637.84;5054338;28;957;-50
2022/03/25 07:14:22;;;;;;;;;;;;;;;26.58;17.08;95645.00;5054275;28;1910;-49
2022/03/25 07:16:48;;;;;;;;;;;;;;;27.26;15.51;95644.91;5054358;28;1043;-49
2022/03/25 07:19:14;;;;;;;;;;;;;;;27.45;15.68;95650.91;5054582;28;973;-50
2022/03/25 07:21:40;;;;;;;;;;;;;;;28.37;15.60;95664.88;5054459;28;1028;-50
2022/03/25 07:24:06;;;;;;;;;;;;;;;28.54;14.87;95642.75;5054026;28;1001;-49
2022/03/25 07:26:32;;;;;;;;;;;;;;;29.32;14.44;95643.00;5054507;28;1094;-50
2022/03/25 07:28:58;;;;;;;;;;;;;;;29.84;14.05;95644.09;5054075;28;1020;-50
2022/03/25 07:31:28;;;;;;;;;;;;;;;30.22;13.60;95649.38;5054191;28;1203;-53
2022/03/25 07:34:00;;;;;;;;;;;;;;;30.85;13.37;95643.66;5053538;28;1910;-51
2022/03/25 07:36:26;;;;;;;;;;;;;;;31.19;13.26;95635.59;5054241;28;1005;-51
2022/03/25 07:38:52;;;;;;;;;;;;;;;31.71;13.08;95650.91;5053975;28;1234;-55
2022/03/25 07:41:19;;;;;;;;;;;;;;;32.15;12.85;95634.66;5054240;28;1024;-51
2022/03/25 07:43:45;;;;;;;;;;;;;;;32.35;12.12;95642.00;5053534;28;1056;-51
2022/03/25 07:46:11;;;;;;;;;;;;;;;32.38;12.60;95641.41;5053916;28;1119;-51
2022/03/25 07:48:37;;;;;;;;;;;;;;;33.22;11.64;95642.09;5054055;28;913;-51
2022/03/25 07:51:04;;;;;;;;;;;;;;;34.21;11.42;95653.69;5058421;28;1221;-51
2022/03/25 07:53:32;;;;;;;;;;;;;;;34.99;10.97;95635.50;5073691;28;2044;-49
2022/03/25 07:55:58;;;;;;;;;;;;;;;35.12;11.25;95636.66;5055738;28;1107;-49
2022/03/25 07:58:24;;;;;;;;;;;;;;;35.59;10.50;95639.38;5053575;28;1115;-49
2022/03/25 08:00:51;;;;;;;;;;;;;;;35.54;10.75;95633.94;5067681;28;1139;-49
2022/03/25 08:03:18;;;;;;;;;;;;;;;35.22;10.98;95638.44;5073704;28;977;-50
2022/03/25 08:05:50;;;;;;;;;;;;;;;34.12;10.98;95630.47;5073364;28;1040;-49
2022/03/25 08:08:17;;;;;;;;;;;;;;;32.94;11.95;95624.34;5073476;28;1037;-48
2022/03/25 08:10:43;;;;;;;;;;;;;;;31.48;12.51;95621.16;5073645;28;1059;-49
2022/03/25 08:13:10;;;;;;;;;;;;;;;29.63;12.76;95606.50;5073082;28;1985;-49
2022/03/25 08:15:36;;;;;;;;;;;;;;;27.37;14.14;95607.44;5072658;28;1091;-48
2022/03/25 08:18:03;;;;;;;;;;;;;;;26.34;15.30;95605.13;5073324;28;1115;-48
2022/03/25 08:20:29;;;;;;;;;;;;;;;25.62;15.15;95609.31;5073524;28;976;-48
2022/03/25 08:22:56;;;;;;;;;;;;;;;24.88;15.36;95602.59;5073505;28;976;-49
2022/03/25 08:28:07;;;;;;;;;;;;;;;24.57;15.34;95600.22;5073513;28;1036;-48
2022/03/25 08:30:34;;;;;;;;;;;;;;;24.48;15.40;95607.94;5073320;28;948;-48
2022/03/25 08:33:04;;;;;;;;;;;;;;;24.67;15.39;95620.44;5073092;28;1986;-48
2022/03/25 08:35:31;;;;;;;;;;;;;;;24.22;15.29;95618.25;5072930;28;1076;-48
2022/03/25 08:37:57;;;;;;;;;;;;;;;23.84;15.77;95624.94;5073305;28;1031;-47
2022/03/25 08:40:24;;;;;;;;;;;;;;;23.71;16.06;95636.03;5072974;28;948;-47
2022/03/25 08:42:50;;;;;;;;;;;;;;;23.99;15.76;95632.69;5073204;28;1048;-48
2022/03/25 08:45:17;;;;;;;;;;;;;;;23.92;15.72;95627.34;5072642;28;1095;-48
2022/03/25 08:47:43;;;;;;;;;;;;;;;23.87;15.14;95637.31;5073221;28;1028;-48
2022/03/25 08:50:12;;;;;;;;;;;;;;;23.55;16.02;95630.16;5073023;28;1040;-48
2022/03/25 08:52:42;;;;;;;;;;;;;;;23.33;15.98;95640.72;5072978;28;1902;-48
2022/03/25 08:55:09;;;;;;;;;;;;;;;23.60;15.63;95634.94;5063674;28;1103;-48
2022/03/25 08:57:36;;;;;;;;;;;;;;;23.29;16.19;95625.88;5053282;28;1028;-48
2022/03/25 09:00:06;;;;;;;;;;;;;;;23.52;15.87;95625.16;5052798;28;1060;-50
2022/03/25 09:02:32;;;;;;;;;;;;;;;23.18;15.98;95627.50;5053116;28;1016;-50
2022/03/25 09:04:58;;;;;;;;;;;;;;;22.60;16.61;95626.00;5052505;28;1067;-50
2022/03/25 09:07:24;;;;;;;;;;;;;;;21.90;17.14;95617.16;5052893;28;1040;-50
2022/03/25 09:09:50;;;;;;;;;;;;;;;21.84;17.65;95624.31;5052916;28;1007;-50
2022/03/25 09:12:16;;;;;;;;;;;;;;;21.68;17.33;95622.09;5052836;28;1906;-50
2022/03/25 09:14:42;;;;;;;;;;;;;;;21.58;17.41;95623.41;5052379;28;1024;-50
2022/03/25 09:17:09;;;;;;;;;;;;;;;21.82;17.71;95621.81;5052872;28;1048;-50
2022/03/25 09:19:35;;;;;;;;;;;;;;;21.92;18.01;95621.31;5052659;28;1033;-50
2022/03/25 09:22:01;;;;;;;;;;;;;;;21.98;17.24;95617.69;5052629;28;1032;-50
2022/03/25 09:24:27;;;;;;;;;;;;;;;21.82;17.28;95615.53;5052630;28;959;-50
2022/03/25 09:26:53;;;;;;;;;;;;;;;21.52;17.49;95612.59;5052684;28;1056;-50
2022/03/25 09:29:19;;;;;;;;;;;;;;;21.53;17.66;95619.69;5056295;28;957;-50
2022/03/25 09:31:45;;;;;;;;;;;;;;;21.60;17.89;95613.16;5056899;28;1063;-50
2022/03/25 09:36:56;;;;;;;;;;;;;;;21.63;17.09;95614.63;5056419;28;968;-50
2022/03/25 09:39:22;;;;;;;;;;;;;;;21.34;17.44;95607.84;5056530;28;999;-50
2022/03/25 09:41:49;;;;;;;;;;;;;;;21.48;17.56;95612.19;5056114;28;1013;-50
2022/03/25 09:44:31;;;;;;;;;;;;;;;21.31;17.40;95616.44;5058256;28;969;-50
2022/03/25 09:46:58;;;;;;;;;;;;;;;21.51;17.36;95610.91;5076336;28;1056;-50
2022/03/25 09:49:24;;;;;;;;;;;;;;;21.56;17.34;95611.91;5076143;28;1016;-49
2022/03/25 09:51:50;;;;;;;;;;;;;;;21.45;17.24;95605.28;5076169;28;1150;-49
2022/03/25 09:57:38;;;;;;;;;;;;;;;21.46;17.14;95603.41;5062106;28;1215;-50
2022/03/25 10:00:05;;;;;;;;;;;;;;;21.20;17.45;95598.91;5055509;28;1087;-50
2022/03/25 10:02:31;;;;;;;;;;;;;;;21.29;17.94;95603.06;5055999;28;1028;-50
2022/03/25 10:04:57;;;;;;;;;;;;;;;21.25;17.66;95602.66;5055845;28;960;-50
2022/03/25 10:07:27;;;;;;;;;;;;;;;21.24;17.88;95594.72;5056086;28;1031;-49
2022/03/25 10:10:08;;;;;;;;;;;;;;;21.53;17.77;95593.34;5055442;28;1273;-50
2022/03/25 10:12:35;;;;;;;;;;;;;;;21.52;17.37;95590.81;5055855;28;1906;-50
2022/03/25 10:15:14;;;;;;;;;;;;;;;21.38;17.46;95590.03;5055597;28;1115;-50
2022/03/25 10:18:07;;;;;;;;;;;;;;;21.20;17.98;95590.75;5055853;28;1021;-50
2022/03/25 10:20:34;;;;;;;;;;;;;;;21.11;17.47;95579.28;5053448;28;1247;-50
2022/03/25 10:23:02;;;;;;;;;;;;;;;20.99;16.98;95583.75;5055821;28;1029;-49
2022/03/25 10:25:32;;;;;;;;;;;;;;;21.08;18.01;95585.19;5055364;28;1029;-49
2022/03/25 10:27:58;;;;;;;;;;;;;;;21.27;17.68;95569.81;5056667;28;1021;-49
2022/03/25 10:30:38;;;;;;;;;;;;;;;21.25;17.78;95578.19;5074112;28;1092;-49
2022/03/25 10:33:19;;;;;;;;;;;;;;;21.20;17.12;95578.00;5075251;28;1914;-49
2022/03/25 10:35:57;;;;;;;;;;;;;;;21.00;17.00;95569.09;5075375;28;1028;-49
2022/03/25 10:38:25;;;;;;;;;;;;;;;20.96;16.81;95560.56;5074327;28;969;-50
2022/03/25 10:40:51;;;;;;;;;;;;;;;20.89;17.32;95565.19;5074930;28;1099;-49
2022/03/25 10:43:17;;;;;;;;;;;;;;;20.76;16.58;95565.25;5075067;28;1032;-49
2022/03/25 10:45:43;;;;;;;;;;;;;;;20.55;16.49;95569.03;5074963;28;1029;-50
2022/03/25 10:48:12;;;;;;;;;;;;;;;20.67;16.58;95562.75;5075548;28;1031;-51
2022/03/25 10:50:57;;;;;;;;;;;;;;;20.45;16.61;95564.03;5074841;28;1241;-49
2022/03/25 10:53:24;;;;;;;;;;;;;;;20.27;17.54;95548.41;5074974;28;1902;-51
2022/03/25 10:56:00;;;;;;;;;;;;;;;20.25;18.14;95564.09;5074579;28;1097;-50
2022/03/25 10:58:27;;;;;;;;;;;;;;;20.26;18.14;95560.31;5074966;28;1110;-50
2022/03/25 11:00:53;;;;;;;;;;;;;;;20.30;17.88;95556.16;5059745;28;1079;-49
2022/03/25 11:03:20;;;;;;;;;;;;;;;20.34;17.31;95551.94;5055080;28;1012;-48
2022/03/25 11:05:46;;;;;;;;;;;;;;;20.26;17.65;95554.88;5054813;28;957;-49
2022/03/25 11:08:12;;;;;;;;;;;;;;;20.21;18.09;95547.38;5054691;28;1091;-49
2022/03/25 11:10:38;;;;;;;;;;;;;;;20.30;18.38;95542.56;5054514;28;1043;-55
2022/03/25 11:13:05;;;;;;;;;;;;;;;19.94;18.14;95551.16;5054279;28;1983;-51
2022/03/25 11:15:31;;;;;;;;;;;;;;;19.98;18.04;95547.84;5054787;28;1033;-50
2022/03/25 11:17:58;;;;;;;;;;;;;;;19.95;17.25;95545.53;5054374;28;1048;-50
2022/03/25 11:20:27;;;;;;;;;;;;;;;19.78;17.56;95541.56;5054387;28;1124;-50
2022/03/25 11:23:12;;;;;;;;;;;;;;;19.66;17.62;95531.31;5054333;28;1013;-51
2022/03/25 11:25:46;;;;;;;;;;;;;;;19.80;18.11;95531.34;5054459;28;1044;-50
2022/03/25 11:28:16;;;;;;;;;;;;;;;19.96;17.94;95538.25;5054374;28;972;-48
2022/03/25 11:30:42;;;;;;;;;;;;;;;19.92;17.84;95529.69;5054283;28;1578;-48
2022/03/25 11:33:10;;;;;;;;;;;;;;;19.80;17.72;95539.50;5053931;28;1992;-49
2022/03/25 11:35:39;;;;;;;;;;;;;;;19.67;18.04;95526.72;5054350;28;1027;-48
2022/03/25 11:38:11;;;;;;;;;;;;;;;19.56;17.55;95528.19;5053980;28;1048;-48
2022/03/25 11:40:39;;;;;;;;;;;;;;;19.52;18.30;95524.25;5054141;28;1008;-48
2022/03/25 11:43:16;;;;;;;;;;;;;;;19.52;18.58;95532.38;5054081;28;1043;-48
2022/03/25 11:45:43;;;;;;;;;;;;;;;19.48;17.81;95523.81;5054197;28;1095;-48
2022/03/25 11:48:09;;;;;;;;;;;;;;;19.49;18.28;95539.03;5053959;28;961;-48
2022/03/25 11:50:36;;;;;;;;;;;;;;;19.58;18.31;95536.97;5053438;28;1155;-48
2022/03/25 11:53:11;;;;;;;;;;;;;;;19.56;17.23;95530.91;5073603;28;1910;-48
2022/03/25 11:55:56;;;;;;;;;;;;;;;19.47;16.67;95529.44;5073912;28;1172;-48
2022/03/25 11:58:22;;;;;;;;;;;;;;;19.35;17.90;95526.50;5073536;28;1486;-48
2022/03/25 12:00:51;;;;;;;;;;;;;;;19.38;18.05;95527.97;5061206;28;1338;-49
2022/03/25 12:03:17;;;;;;;;;;;;;;;19.37;17.42;95510.00;5053785;28;977;-48
2022/03/25 12:06:03;;;;;;;;;;;;;;;19.24;17.28;95521.69;5053991;28;1028;-49
2022/03/25 12:08:35;;;;;;;;;;;;;;;19.27;17.92;95526.69;5053752;28;1011;-49
2022/03/25 12:11:06;;;;;;;;;;;;;;;19.26;18.11;95527.75;5053378;28;1028;-50
2022/03/25 12:13:50;;;;;;;;;;;;;;;19.02;17.79;95505.59;5053211;28;1992;-49
2022/03/25 12:16:35;;;;;;;;;;;;;;;18.99;17.25;95516.84;5053769;28;1005;-48
2022/03/25 12:19:01;;;;;;;;;;;;;;;18.98;18.33;95526.00;5053406;28;1013;-47
2022/03/25 12:21:27;;;;;;;;;;;;;;;19.10;17.58;95528.94;5053265;28;1234;-48
2022/03/25 12:23:54;;;;;;;;;;;;;;;18.95;17.72;95528.28;5053232;28;996;-47
2022/03/25 12:26:38;;;;;;;;;;;;;;;19.05;18.37;95523.34;5053667;28;1040;-48
2022/03/25 12:29:07;;;;;;;;;;;;;;;18.89;15.31;95522.66;5053349;28;1020;-48
2022/03/25 12:31:33;;;;;;;;;;;;;;;18.73;15.98;95523.81;5053356;28;1260;-49
2022/03/25 12:34:00;;;;;;;;;;;;;;;18.70;16.35;95529.66;5053137;28;1903;-49
2022/03/25 12:36:56;;;;;;;;;;;;;;;18.68;16.42;95529.00;5053216;28;1095;-48
2022/03/25 12:39:22;;;;;;;;;;;;;;;18.63;16.65;95526.09;5044593;28;1428;-49
2022/03/25 12:41:50;;;;;;;;;;;;;;;18.62;16.58;95528.97;5052702;28;1044;-48
2022/03/25 12:44:24;;;;;;;;;;;;;;;18.52;16.32;95522.06;5053077;28;1215;-48
2022/03/25 12:46:51;;;;;;;;;;;;;;;18.53;16.14;95533.72;5053150;28;989;-47
2022/03/25 12:49:17;;;;;;;;;;;;;;;18.38;16.19;95530.31;5053329;28;1043;-47
2022/03/25 12:51:54;;;;;;;;;;;;;;;18.31;16.14;95522.19;5062769;28;1160;-48
2022/03/25 12:54:19;;;;;;;;;;;;;;;18.21;15.88;95525.25;5073068;28;1902;-48
2022/03/25 12:56:52;;;;;;;;;;;;;;;18.19;15.76;95531.88;5072901;28;1199;-48
2022/03/25 12:59:25;;;;;;;;;;;;;;;18.21;15.75;95533.38;5073103;28;1304;-49
2022/03/25 13:01:51;;;;;;;;;;;;;;;18.26;15.70;95528.19;5055717;28;1065;-49
2022/03/25 13:04:26;;;;;;;;;;;;;;;18.35;15.76;95526.16;5057255;28;988;-48
2022/03/25 13:06:56;;;;;;;;;;;;;;;18.43;15.58;95523.28;5057265;28;954;-49
2022/03/25 13:09:22;;;;;;;;;;;;;;;18.49;15.16;95527.03;5057079;28;1045;-48
2022/03/25 13:11:51;;;;;;;;;;;;;;;18.35;14.61;95526.16;5056488;28;1079;-49
2022/03/25 13:14:17;;;;;;;;;;;;;;;18.19;14.40;95526.47;5056870;28;1987;-49